Baku airport (UBBB)

baku-airport

Baku International Airport

Heydar Aliyev International Airport is the main international airport in Azerbaijan located 20 km (12 mi) northeast of the capital Baku. The airport is the home of Azerbaijan Airlines, the national flag carrier. It is the busiest airport in Azerbaijan and of the Caucasus.

ICAO: UBBB, IATA: GYD

Charts: Jeppesen

Sceneries: freeware demos w. reduced resolution

 fs9     fsx     Prepar

payware: http://www.drzewiecki-design.net/

METAR:

UBBB 200300Z 31014KT 7000 SCT042 OVC100 07/06 Q1014 R34/290057 R35/290052 NOSIG

TAF COR TAF COR UBBB 191716Z 1918/2018 18006KT 9999 SCT020 BKN100 TX09/2009Z TN05/2002Z TEMPO 1918/1923 VRB04KT 5000 BR SCT010 BECMG 1923/2001 32005KT BKN020 OVC100 TEMPO 2001/2005 34008KT 6000 -RA BKN010 OVC025 BECMG 2005/2007 36010KT TEMPO 2005/2018 6000 -RA BKN008 OVC020